sensor_id;sensor_type;location;lat;lon;timestamp;temperature;humidity
24632;DHT22;59977;48.782;9.190;2024-03-25T00:01:55;7.00;99.90
24632;DHT22;59977;48.782;9.190;2024-03-25T00:04:21;6.90;99.90
24632;DHT22;59977;48.782;9.190;2024-03-25T00:06:49;6.90;99.90
24632;DHT22;59977;48.782;9.190;2024-03-25T00:09:14;6.90;99.90
24632;DHT22;59977;48.782;9.190;2024-03-25T00:11:41;6.90;99.90
24632;DHT22;59977;48.782;9.190;2024-03-25T00:14:07;6.90;99.90
24632;DHT22;59977;48.782;9.190;2024-03-25T00:16:33;6.90;99.90
24632;DHT22;59977;48.782;9.190;2024-03-25T00:18:59;6.80;99.90
24632;DHT22;59977;48.782;9.190;2024-03-25T00:21:24;6.90;99.90
24632;DHT22;59977;48.782;9.190;2024-03-25T00:23:50;6.90;99.90
24632;DHT22;59977;48.782;9.190;2024-03-25T00:26:15;6.80;99.90
24632;DHT22;59977;48.782;9.190;2024-03-25T00:28:41;6.80;99.90
24632;DHT22;59977;48.782;9.190;2024-03-25T00:31:06;6.90;99.90
24632;DHT22;59977;48.782;9.190;2024-03-25T00:33:32;6.80;99.90
24632;DHT22;59977;48.782;9.190;2024-03-25T00:35:58;6.80;99.90
24632;DHT22;59977;48.782;9.190;2024-03-25T00:38:24;6.80;99.90
24632;DHT22;59977;48.782;9.190;2024-03-25T00:40:50;7.00;99.90
24632;DHT22;59977;48.782;9.190;2024-03-25T00:43:16;6.80;99.90
24632;DHT22;59977;48.782;9.190;2024-03-25T00:45:43;6.70;99.90
24632;DHT22;59977;48.782;9.190;2024-03-25T00:48:08;6.70;99.90
24632;DHT22;59977;48.782;9.190;2024-03-25T00:50:34;6.70;99.90
24632;DHT22;59977;48.782;9.190;2024-03-25T00:53:00;6.70;99.90
24632;DHT22;59977;48.782;9.190;2024-03-25T00:55:25;6.70;99.90
24632;DHT22;59977;48.782;9.190;2024-03-25T00:57:51;6.70;99.90
24632;DHT22;59977;48.782;9.190;2024-03-25T01:00:17;6.60;99.90
24632;DHT22;59977;48.782;9.190;2024-03-25T01:02:43;6.60;99.90
24632;DHT22;59977;48.782;9.190;2024-03-25T01:05:09;6.80;99.90
24632;DHT22;59977;48.782;9.190;2024-03-25T01:07:35;6.60;99.90
24632;DHT22;59977;48.782;9.190;2024-03-25T01:10:03;6.60;99.90
24632;DHT22;59977;48.782;9.190;2024-03-25T01:12:29;6.60;99.90
24632;DHT22;59977;48.782;9.190;2024-03-25T01:14:55;6.70;99.90
24632;DHT22;59977;48.782;9.190;2024-03-25T01:17:20;7.30;99.90
24632;DHT22;59977;48.782;9.190;2024-03-25T01:19:46;6.60;99.90
24632;DHT22;59977;48.782;9.190;2024-03-25T01:22:12;6.80;99.90
24632;DHT22;59977;48.782;9.190;2024-03-25T01:24:37;6.50;99.90
24632;DHT22;59977;48.782;9.190;2024-03-25T01:27:03;6.60;99.90
24632;DHT22;59977;48.782;9.190;2024-03-25T01:29:29;6.60;99.90
24632;DHT22;59977;48.782;9.190;2024-03-25T01:31:54;6.60;99.90
24632;DHT22;59977;48.782;9.190;2024-03-25T01:34:20;6.60;99.90
24632;DHT22;59977;48.782;9.190;2024-03-25T01:36:45;6.70;99.90
24632;DHT22;59977;48.782;9.190;2024-03-25T01:39:11;7.30;99.90
24632;DHT22;59977;48.782;9.190;2024-03-25T01:41:36;6.50;99.90
24632;DHT22;59977;48.782;9.190;2024-03-25T01:44:02;6.60;99.90
24632;DHT22;59977;48.782;9.190;2024-03-25T01:46:28;6.50;99.90
24632;DHT22;59977;48.782;9.190;2024-03-25T01:48:54;6.50;99.90
24632;DHT22;59977;48.782;9.190;2024-03-25T01:51:23;6.60;99.90
24632;DHT22;59977;48.782;9.190;2024-03-25T01:53:49;6.60;99.90
24632;DHT22;59977;48.782;9.190;2024-03-25T01:56:16;6.60;99.90
24632;DHT22;59977;48.782;9.190;2024-03-25T01:58:43;6.50;99.90
24632;DHT22;59977;48.782;9.190;2024-03-25T02:01:09;6.60;99.90
24632;DHT22;59977;48.782;9.190;2024-03-25T02:03:39;6.50;99.90
24632;DHT22;59977;48.782;9.190;2024-03-25T02:06:08;6.40;99.90
24632;DHT22;59977;48.782;9.190;2024-03-25T02:08:36;6.50;99.90
24632;DHT22;59977;48.782;9.190;2024-03-25T02:11:02;6.60;99.90
24632;DHT22;59977;48.782;9.190;2024-03-25T02:13:28;6.50;99.90
24632;DHT22;59977;48.782;9.190;2024-03-25T02:15:53;6.50;99.90
24632;DHT22;59977;48.782;9.190;2024-03-25T02:18:20;6.50;99.90
24632;DHT22;59977;48.782;9.190;2024-03-25T02:20:47;6.50;99.90
24632;DHT22;59977;48.782;9.190;2024-03-25T02:23:13;6.60;99.90
24632;DHT22;59977;48.782;9.190;2024-03-25T02:25:41;6.60;99.90
24632;DHT22;59977;48.782;9.190;2024-03-25T02:28:07;6.60;99.90
24632;DHT22;59977;48.782;9.190;2024-03-25T02:30:33;6.50;99.90
24632;DHT22;59977;48.782;9.190;2024-03-25T02:32:59;6.60;99.90
24632;DHT22;59977;48.782;9.190;2024-03-25T02:35:25;6.60;99.90
24632;DHT22;59977;48.782;9.190;2024-03-25T02:37:51;6.60;99.90
24632;DHT22;59977;48.782;9.190;2024-03-25T02:40:18;6.90;99.90
24632;DHT22;59977;48.782;9.190;2024-03-25T02:42:44;6.60;99.90
24632;DHT22;59977;48.782;9.190;2024-03-25T02:45:10;7.00;99.90
24632;DHT22;59977;48.782;9.190;2024-03-25T02:47:36;6.60;99.90
24632;DHT22;59977;48.782;9.190;2024-03-25T02:50:02;6.60;99.90
24632;DHT22;59977;48.782;9.190;2024-03-25T02:52:27;6.60;99.90
24632;DHT22;59977;48.782;9.190;2024-03-25T02:54:53;7.00;99.90
24632;DHT22;59977;48.782;9.190;2024-03-25T02:57:20;6.60;99.90
24632;DHT22;59977;48.782;9.190;2024-03-25T02:59:45;6.60;99.90
24632;DHT22;59977;48.782;9.190;2024-03-25T03:02:11;6.60;99.90
24632;DHT22;59977;48.782;9.190;2024-03-25T03:04:37;6.60;99.90
24632;DHT22;59977;48.782;9.190;2024-03-25T03:07:02;7.00;99.90
24632;DHT22;59977;48.782;9.190;2024-03-25T03:09:28;6.60;99.90
24632;DHT22;59977;48.782;9.190;2024-03-25T03:11:54;7.40;99.90
24632;DHT22;59977;48.782;9.190;2024-03-25T03:14:19;6.60;99.90
24632;DHT22;59977;48.782;9.190;2024-03-25T03:16:45;6.60;99.90
24632;DHT22;59977;48.782;9.190;2024-03-25T03:19:10;6.60;99.90
24632;DHT22;59977;48.782;9.190;2024-03-25T03:21:36;6.70;99.90
24632;DHT22;59977;48.782;9.190;2024-03-25T03:24:03;6.60;99.90
24632;DHT22;59977;48.782;9.190;2024-03-25T03:26:28;6.70;99.90
24632;DHT22;59977;48.782;9.190;2024-03-25T03:28:54;6.70;99.90
24632;DHT22;59977;48.782;9.190;2024-03-25T03:31:20;6.60;99.90
24632;DHT22;59977;48.782;9.190;2024-03-25T03:33:49;6.60;99.90
24632;DHT22;59977;48.782;9.190;2024-03-25T03:36:16;6.50;99.90
24632;DHT22;59977;48.782;9.190;2024-03-25T03:38:42;6.50;99.90
24632;DHT22;59977;48.782;9.190;2024-03-25T03:41:07;6.50;99.90
24632;DHT22;59977;48.782;9.190;2024-03-25T03:43:33;6.80;99.90
24632;DHT22;59977;48.782;9.190;2024-03-25T03:45:59;6.50;99.90
24632;DHT22;59977;48.782;9.190;2024-03-25T03:48:24;6.50;99.90
24632;DHT22;59977;48.782;9.190;2024-03-25T03:50:50;6.50;99.90
24632;DHT22;59977;48.782;9.190;2024-03-25T03:53:15;6.50;99.90
24632;DHT22;59977;48.782;9.190;2024-03-25T03:55:41;6.50;99.90
24632;DHT22;59977;48.782;9.190;2024-03-25T03:58:06;6.50;99.90
24632;DHT22;59977;48.782;9.190;2024-03-25T04:00:35;6.50;99.90
24632;DHT22;59977;48.782;9.190;2024-03-25T04:03:04;7.20;99.90
24632;DHT22;59977;48.782;9.190;2024-03-25T04:05:30;6.40;99.90
24632;DHT22;59977;48.782;9.190;2024-03-25T04:07:56;7.00;99.90
24632;DHT22;59977;48.782;9.190;2024-03-25T04:10:22;6.70;99.90
24632;DHT22;59977;48.782;9.190;2024-03-25T04:12:48;6.40;99.90
24632;DHT22;59977;48.782;9.190;2024-03-25T04:15:13;6.40;99.90
24632;DHT22;59977;48.782;9.190;2024-03-25T04:17:43;6.40;99.90
24632;DHT22;59977;48.782;9.190;2024-03-25T04:20:11;6.40;99.90
24632;DHT22;59977;48.782;9.190;2024-03-25T04:22:37;6.30;99.90
24632;DHT22;59977;48.782;9.190;2024-03-25T04:25:02;6.70;99.90
24632;DHT22;59977;48.782;9.190;2024-03-25T04:27:28;6.30;99.90
24632;DHT22;59977;48.782;9.190;2024-03-25T04:29:53;6.30;99.90
24632;DHT22;59977;48.782;9.190;2024-03-25T04:32:19;6.90;99.90
24632;DHT22;59977;48.782;9.190;2024-03-25T04:34:45;6.30;99.90
24632;DHT22;59977;48.782;9.190;2024-03-25T04:37:10;6.30;99.90
24632;DHT22;59977;48.782;9.190;2024-03-25T04:39:37;6.30;99.90
24632;DHT22;59977;48.782;9.190;2024-03-25T04:42:02;6.80;99.90
24632;DHT22;59977;48.782;9.190;2024-03-25T04:44:28;6.30;99.90
24632;DHT22;59977;48.782;9.190;2024-03-25T04:46:54;6.40;99.90
24632;DHT22;59977;48.782;9.190;2024-03-25T04:49:19;6.30;99.90
24632;DHT22;59977;48.782;9.190;2024-03-25T04:51:45;6.30;99.90
24632;DHT22;59977;48.782;9.190;2024-03-25T04:54:11;7.10;99.90
24632;DHT22;59977;48.782;9.190;2024-03-25T04:56:36;6.30;99.90
24632;DHT22;59977;48.782;9.190;2024-03-25T04:59:02;6.30;99.90
24632;DHT22;59977;48.782;9.190;2024-03-25T05:01:28;6.40;99.90
24632;DHT22;59977;48.782;9.190;2024-03-25T05:03:53;6.30;99.90
24632;DHT22;59977;48.782;9.190;2024-03-25T05:06:19;6.30;99.90
24632;DHT22;59977;48.782;9.190;2024-03-25T05:08:45;6.70;99.90
24632;DHT22;59977;48.782;9.190;2024-03-25T05:11:10;7.10;99.90
24632;DHT22;59977;48.782;9.190;2024-03-25T05:13:36;6.80;99.90
24632;DHT22;59977;48.782;9.190;2024-03-25T05:16:20;6.30;99.90
24632;DHT22;59977;48.782;9.190;2024-03-25T05:18:45;6.80;99.90
24632;DHT22;59977;48.782;9.190;2024-03-25T05:21:11;6.10;99.90
24632;DHT22;59977;48.782;9.190;2024-03-25T05:23:37;6.10;99.90
24632;DHT22;59977;48.782;9.190;2024-03-25T05:26:02;6.10;99.90
24632;DHT22;59977;48.782;9.190;2024-03-25T05:28:28;6.10;99.90
24632;DHT22;59977;48.782;9.190;2024-03-25T05:30:53;6.30;99.90
24632;DHT22;59977;48.782;9.190;2024-03-25T05:33:19;6.10;99.90
24632;DHT22;59977;48.782;9.190;2024-03-25T05:35:45;6.10;99.90
24632;DHT22;59977;48.782;9.190;2024-03-25T05:38:10;6.10;99.90
24632;DHT22;59977;48.782;9.190;2024-03-25T05:40:36;6.20;99.90
24632;DHT22;59977;48.782;9.190;2024-03-25T05:43:02;6.20;99.90
24632;DHT22;59977;48.782;9.190;2024-03-25T05:45:28;6.20;99.90
24632;DHT22;59977;48.782;9.190;2024-03-25T05:47:53;6.20;99.90
24632;DHT22;59977;48.782;9.190;2024-03-25T05:50:19;6.90;99.90
24632;DHT22;59977;48.782;9.190;2024-03-25T05:52:44;6.20;99.90
24632;DHT22;59977;48.782;9.190;2024-03-25T05:55:10;6.20;99.90
24632;DHT22;59977;48.782;9.190;2024-03-25T05:57:36;6.20;99.90
24632;DHT22;59977;48.782;9.190;2024-03-25T06:00:02;6.30;99.90
24632;DHT22;59977;48.782;9.190;2024-03-25T06:02:28;6.20;99.90
24632;DHT22;59977;48.782;9.190;2024-03-25T06:04:54;6.30;99.90
24632;DHT22;59977;48.782;9.190;2024-03-25T06:07:22;6.30;99.90
24632;DHT22;59977;48.782;9.190;2024-03-25T06:09:47;6.30;99.90
24632;DHT22;59977;48.782;9.190;2024-03-25T06:12:13;6.50;99.90
24632;DHT22;59977;48.782;9.190;2024-03-25T06:14:39;6.40;99.90
24632;DHT22;59977;48.782;9.190;2024-03-25T06:17:04;6.40;99.90
24632;DHT22;59977;48.782;9.190;2024-03-25T06:19:30;6.30;99.90
24632;DHT22;59977;48.782;9.190;2024-03-25T06:21:56;6.30;99.90
24632;DHT22;59977;48.782;9.190;2024-03-25T06:24:21;6.30;99.90
24632;DHT22;59977;48.782;9.190;2024-03-25T06:26:47;6.90;99.90
24632;DHT22;59977;48.782;9.190;2024-03-25T06:29:14;6.20;99.90
24632;DHT22;59977;48.782;9.190;2024-03-25T06:31:40;6.30;99.90
24632;DHT22;59977;48.782;9.190;2024-03-25T06:34:24;6.90;99.90
24632;DHT22;59977;48.782;9.190;2024-03-25T06:36:50;6.30;99.90
24632;DHT22;59977;48.782;9.190;2024-03-25T06:39:15;6.30;99.90
24632;DHT22;59977;48.782;9.190;2024-03-25T06:41:41;6.30;99.90
24632;DHT22;59977;48.782;9.190;2024-03-25T06:44:07;6.40;99.90
24632;DHT22;59977;48.782;9.190;2024-03-25T06:46:33;6.30;99.90
24632;DHT22;59977;48.782;9.190;2024-03-25T06:48:58;6.80;99.90
24632;DHT22;59977;48.782;9.190;2024-03-25T06:51:24;6.40;99.90
24632;DHT22;59977;48.782;9.190;2024-03-25T06:53:50;6.50;99.90
24632;DHT22;59977;48.782;9.190;2024-03-25T06:56:16;6.50;99.90
24632;DHT22;59977;48.782;9.190;2024-03-25T06:58:42;6.60;99.90
24632;DHT22;59977;48.782;9.190;2024-03-25T07:01:09;6.70;99.90
24632;DHT22;59977;48.782;9.190;2024-03-25T07:03:38;6.80;99.90
24632;DHT22;59977;48.782;9.190;2024-03-25T07:06:04;6.90;99.90
24632;DHT22;59977;48.782;9.190;2024-03-25T07:08:30;7.00;99.90
24632;DHT22;59977;48.782;9.190;2024-03-25T07:10:56;7.00;99.90
24632;DHT22;59977;48.782;9.190;2024-03-25T07:13:22;6.90;99.90
24632;DHT22;59977;48.782;9.190;2024-03-25T07:15:48;6.90;99.90
24632;DHT22;59977;48.782;9.190;2024-03-25T07:18:13;7.00;99.90
24632;DHT22;59977;48.782;9.190;2024-03-25T07:20:40;7.00;99.90
24632;DHT22;59977;48.782;9.190;2024-03-25T07:23:06;7.20;99.90
24632;DHT22;59977;48.782;9.190;2024-03-25T07:25:32;7.40;99.90
24632;DHT22;59977;48.782;9.190;2024-03-25T07:27:57;7.50;99.90
24632;DHT22;59977;48.782;9.190;2024-03-25T07:30:23;7.60;99.90
24632;DHT22;59977;48.782;9.190;2024-03-25T07:32:53;7.60;99.90
24632;DHT22;59977;48.782;9.190;2024-03-25T07:35:18;7.80;99.90
24632;DHT22;59977;48.782;9.190;2024-03-25T07:37:44;8.30;99.90
24632;DHT22;59977;48.782;9.190;2024-03-25T07:40:10;7.90;99.90
24632;DHT22;59977;48.782;9.190;2024-03-25T07:42:37;8.00;99.90
24632;DHT22;59977;48.782;9.190;2024-03-25T07:45:03;8.00;99.90
24632;DHT22;59977;48.782;9.190;2024-03-25T07:47:31;8.10;99.90
24632;DHT22;59977;48.782;9.190;2024-03-25T07:49:57;8.10;99.90
24632;DHT22;59977;48.782;9.190;2024-03-25T07:52:24;8.10;99.90
24632;DHT22;59977;48.782;9.190;2024-03-25T07:54:50;8.10;99.90
24632;DHT22;59977;48.782;9.190;2024-03-25T07:57:16;8.20;99.90
24632;DHT22;59977;48.782;9.190;2024-03-25T07:59:42;8.80;99.90
24632;DHT22;59977;48.782;9.190;2024-03-25T08:02:08;8.30;99.90
24632;DHT22;59977;48.782;9.190;2024-03-25T08:04:33;8.40;99.90
24632;DHT22;59977;48.782;9.190;2024-03-25T08:06:59;8.50;99.90
24632;DHT22;59977;48.782;9.190;2024-03-25T08:09:24;9.10;99.90
24632;DHT22;59977;48.782;9.190;2024-03-25T08:11:50;8.80;99.90
24632;DHT22;59977;48.782;9.190;2024-03-25T08:14:16;8.90;99.90
24632;DHT22;59977;48.782;9.190;2024-03-25T08:16:41;9.00;99.90
24632;DHT22;59977;48.782;9.190;2024-03-25T08:19:07;9.20;99.90
24632;DHT22;59977;48.782;9.190;2024-03-25T08:21:32;9.00;99.90
24632;DHT22;59977;48.782;9.190;2024-03-25T08:23:58;8.90;99.90
24632;DHT22;59977;48.782;9.190;2024-03-25T08:26:24;8.90;99.90
24632;DHT22;59977;48.782;9.190;2024-03-25T08:28:49;8.90;99.90
24632;DHT22;59977;48.782;9.190;2024-03-25T08:31:15;8.90;99.90
24632;DHT22;59977;48.782;9.190;2024-03-25T08:33:41;9.00;99.90
24632;DHT22;59977;48.782;9.190;2024-03-25T08:36:06;9.30;99.90
24632;DHT22;59977;48.782;9.190;2024-03-25T08:38:33;9.10;99.90
24632;DHT22;59977;48.782;9.190;2024-03-25T08:40:58;9.00;99.90
24632;DHT22;59977;48.782;9.190;2024-03-25T08:43:24;8.90;99.90
24632;DHT22;59977;48.782;9.190;2024-03-25T08:45:49;8.90;99.90
24632;DHT22;59977;48.782;9.190;2024-03-25T08:48:15;9.10;99.90
24632;DHT22;59977;48.782;9.190;2024-03-25T08:50:41;9.10;99.90
24632;DHT22;59977;48.782;9.190;2024-03-25T08:53:06;9.20;99.90
24632;DHT22;59977;48.782;9.190;2024-03-25T08:55:32;10.10;99.90
24632;DHT22;59977;48.782;9.190;2024-03-25T08:57:58;9.90;99.90
24632;DHT22;59977;48.782;9.190;2024-03-25T09:00:26;10.00;99.90
24632;DHT22;59977;48.782;9.190;2024-03-25T09:02:55;10.00;99.90
24632;DHT22;59977;48.782;9.190;2024-03-25T09:05:21;10.10;99.90
24632;DHT22;59977;48.782;9.190;2024-03-25T09:07:50;10.00;99.90
24632;DHT22;59977;48.782;9.190;2024-03-25T09:10:18;9.80;99.90
24632;DHT22;59977;48.782;9.190;2024-03-25T09:13:02;9.60;99.90
24632;DHT22;59977;48.782;9.190;2024-03-25T09:15:28;9.30;99.90
24632;DHT22;59977;48.782;9.190;2024-03-25T09:17:54;9.10;99.90
24632;DHT22;59977;48.782;9.190;2024-03-25T09:20:20;9.10;99.90
24632;DHT22;59977;48.782;9.190;2024-03-25T09:22:49;9.50;99.90
24632;DHT22;59977;48.782;9.190;2024-03-25T09:25:18;9.00;99.90
24632;DHT22;59977;48.782;9.190;2024-03-25T09:27:47;9.30;99.90
24632;DHT22;59977;48.782;9.190;2024-03-25T09:30:15;9.50;99.90
24632;DHT22;59977;48.782;9.190;2024-03-25T09:32:41;9.60;99.90
24632;DHT22;59977;48.782;9.190;2024-03-25T09:35:08;9.80;99.90
24632;DHT22;59977;48.782;9.190;2024-03-25T09:37:34;10.00;99.90
24632;DHT22;59977;48.782;9.190;2024-03-25T09:40:00;10.20;99.90
24632;DHT22;59977;48.782;9.190;2024-03-25T09:42:46;10.30;99.90
24632;DHT22;59977;48.782;9.190;2024-03-25T09:45:15;10.50;99.90
24632;DHT22;59977;48.782;9.190;2024-03-25T09:47:47;10.80;99.90
24632;DHT22;59977;48.782;9.190;2024-03-25T09:50:15;10.80;99.90
24632;DHT22;59977;48.782;9.190;2024-03-25T09:52:51;11.00;99.90
24632;DHT22;59977;48.782;9.190;2024-03-25T09:55:16;11.10;99.90
24632;DHT22;59977;48.782;9.190;2024-03-25T09:57:43;11.20;99.90
24632;DHT22;59977;48.782;9.190;2024-03-25T10:00:11;11.30;99.90
24632;DHT22;59977;48.782;9.190;2024-03-25T10:02:40;11.30;99.90
24632;DHT22;59977;48.782;9.190;2024-03-25T10:05:07;11.10;99.90
24632;DHT22;59977;48.782;9.190;2024-03-25T10:07:33;11.00;99.90
24632;DHT22;59977;48.782;9.190;2024-03-25T10:10:03;10.70;99.90
24632;DHT22;59977;48.782;9.190;2024-03-25T10:12:28;10.50;99.90
24632;DHT22;59977;48.782;9.190;2024-03-25T10:14:54;10.50;99.90
24632;DHT22;59977;48.782;9.190;2024-03-25T10:17:22;10.40;99.90
24632;DHT22;59977;48.782;9.190;2024-03-25T10:19:47;10.50;99.90
24632;DHT22;59977;48.782;9.190;2024-03-25T10:22:13;11.00;99.90
24632;DHT22;59977;48.782;9.190;2024-03-25T10:24:45;11.10;99.90
24632;DHT22;59977;48.782;9.190;2024-03-25T10:27:21;11.00;99.90
24632;DHT22;59977;48.782;9.190;2024-03-25T10:29:47;11.20;99.90
24632;DHT22;59977;48.782;9.190;2024-03-25T10:32:14;11.30;99.90
24632;DHT22;59977;48.782;9.190;2024-03-25T10:34:40;11.50;99.90
24632;DHT22;59977;48.782;9.190;2024-03-25T10:37:09;11.50;99.90
24632;DHT22;59977;48.782;9.190;2024-03-25T10:39:43;11.50;99.90
24632;DHT22;59977;48.782;9.190;2024-03-25T10:42:11;11.70;99.90
24632;DHT22;59977;48.782;9.190;2024-03-25T10:44:38;11.30;99.90
24632;DHT22;59977;48.782;9.190;2024-03-25T10:47:06;11.40;99.90
24632;DHT22;59977;48.782;9.190;2024-03-25T10:49:50;11.40;99.90
24632;DHT22;59977;48.782;9.190;2024-03-25T10:52:20;11.40;99.90
24632;DHT22;59977;48.782;9.190;2024-03-25T10:54:47;11.60;99.90
24632;DHT22;59977;48.782;9.190;2024-03-25T10:57:14;11.70;99.50
24632;DHT22;59977;48.782;9.190;2024-03-25T10:59:41;11.70;99.90
24632;DHT22;59977;48.782;9.190;2024-03-25T11:02:08;11.70;99.60
24632;DHT22;59977;48.782;9.190;2024-03-25T11:04:34;11.80;99.20
24632;DHT22;59977;48.782;9.190;2024-03-25T11:07:14;11.70;99.90
24632;DHT22;59977;48.782;9.190;2024-03-25T11:09:41;11.70;99.70
24632;DHT22;59977;48.782;9.190;2024-03-25T11:12:11;11.60;99.90
24632;DHT22;59977;48.782;9.190;2024-03-25T11:14:38;11.60;99.90
24632;DHT22;59977;48.782;9.190;2024-03-25T11:17:15;11.60;99.90
24632;DHT22;59977;48.782;9.190;2024-03-25T11:19:43;11.50;99.90
24632;DHT22;59977;48.782;9.190;2024-03-25T11:22:12;11.60;99.20
24632;DHT22;59977;48.782;9.190;2024-03-25T11:24:38;11.50;98.70
24632;DHT22;59977;48.782;9.190;2024-03-25T11:27:08;11.40;98.80
24632;DHT22;59977;48.782;9.190;2024-03-25T11:29:35;11.40;98.60
24632;DHT22;59977;48.782;9.190;2024-03-25T11:32:04;11.80;99.00
24632;DHT22;59977;48.782;9.190;2024-03-25T11:34:30;11.40;99.90
24632;DHT22;59977;48.782;9.190;2024-03-25T11:36:56;11.20;98.20
24632;DHT22;59977;48.782;9.190;2024-03-25T11:39:23;11.60;99.00
24632;DHT22;59977;48.782;9.190;2024-03-25T11:41:49;11.50;98.90
24632;DHT22;59977;48.782;9.190;2024-03-25T11:44:14;11.50;98.80
24632;DHT22;59977;48.782;9.190;2024-03-25T11:46:43;11.90;97.50
24632;DHT22;59977;48.782;9.190;2024-03-25T11:49:15;11.90;97.60
24632;DHT22;59977;48.782;9.190;2024-03-25T11:51:43;11.90;96.90
24632;DHT22;59977;48.782;9.190;2024-03-25T11:54:12;11.90;97.30
24632;DHT22;59977;48.782;9.190;2024-03-25T11:56:39;12.00;96.50
24632;DHT22;59977;48.782;9.190;2024-03-25T11:59:04;11.90;96.80
24632;DHT22;59977;48.782;9.190;2024-03-25T12:01:31;11.70;97.30
24632;DHT22;59977;48.782;9.190;2024-03-25T12:03:57;11.50;97.40
24632;DHT22;59977;48.782;9.190;2024-03-25T12:06:25;11.80;97.20
24632;DHT22;59977;48.782;9.190;2024-03-25T12:08:51;11.40;97.90
24632;DHT22;59977;48.782;9.190;2024-03-25T12:11:35;11.60;97.70
24632;DHT22;59977;48.782;9.190;2024-03-25T12:14:01;11.80;98.20
24632;DHT22;59977;48.782;9.190;2024-03-25T12:16:27;11.80;97.20
24632;DHT22;59977;48.782;9.190;2024-03-25T12:18:52;11.60;96.70
24632;DHT22;59977;48.782;9.190;2024-03-25T12:21:19;11.50;96.90
24632;DHT22;59977;48.782;9.190;2024-03-25T12:23:44;11.30;97.00
24632;DHT22;59977;48.782;9.190;2024-03-25T12:26:12;11.20;95.70
24632;DHT22;59977;48.782;9.190;2024-03-25T12:28:37;11.30;97.10
24632;DHT22;59977;48.782;9.190;2024-03-25T12:31:07;11.70;97.40
24632;DHT22;59977;48.782;9.190;2024-03-25T12:33:53;11.20;97.60
24632;DHT22;59977;48.782;9.190;2024-03-25T12:36:20;11.20;96.90
24632;DHT22;59977;48.782;9.190;2024-03-25T12:38:57;11.30;97.10
24632;DHT22;59977;48.782;9.190;2024-03-25T12:41:23;11.30;97.50
24632;DHT22;59977;48.782;9.190;2024-03-25T12:43:50;11.30;97.30
24632;DHT22;59977;48.782;9.190;2024-03-25T12:46:16;11.40;97.00
24632;DHT22;59977;48.782;9.190;2024-03-25T12:48:43;11.50;97.40
24632;DHT22;59977;48.782;9.190;2024-03-25T12:51:13;11.40;96.60
24632;DHT22;59977;48.782;9.190;2024-03-25T12:53:39;11.60;96.90
24632;DHT22;59977;48.782;9.190;2024-03-25T12:56:06;11.70;96.60
24632;DHT22;59977;48.782;9.190;2024-03-25T12:58:31;11.70;95.10
24632;DHT22;59977;48.782;9.190;2024-03-25T13:00:57;11.80;95.00
24632;DHT22;59977;48.782;9.190;2024-03-25T13:03:23;12.00;94.60
24632;DHT22;59977;48.782;9.190;2024-03-25T13:05:48;12.10;93.40
24632;DHT22;59977;48.782;9.190;2024-03-25T13:08:15;12.30;92.30
24632;DHT22;59977;48.782;9.190;2024-03-25T13:10:42;12.20;91.80
24632;DHT22;59977;48.782;9.190;2024-03-25T13:13:08;12.30;90.70
24632;DHT22;59977;48.782;9.190;2024-03-25T13:15:34;12.50;89.50
24632;DHT22;59977;48.782;9.190;2024-03-25T13:18:03;12.30;89.90
24632;DHT22;59977;48.782;9.190;2024-03-25T13:20:29;12.20;90.30
24632;DHT22;59977;48.782;9.190;2024-03-25T13:22:55;12.30;91.40
24632;DHT22;59977;48.782;9.190;2024-03-25T13:25:25;12.50;91.80
24632;DHT22;59977;48.782;9.190;2024-03-25T13:27:52;12.90;92.00
24632;DHT22;59977;48.782;9.190;2024-03-25T13:30:18;12.90;91.00
24632;DHT22;59977;48.782;9.190;2024-03-25T13:32:44;13.10;90.40
24632;DHT22;59977;48.782;9.190;2024-03-25T13:35:09;13.40;90.90
24632;DHT22;59977;48.782;9.190;2024-03-25T13:37:35;13.40;90.80
24632;DHT22;59977;48.782;9.190;2024-03-25T13:40:01;13.60;90.00
24632;DHT22;59977;48.782;9.190;2024-03-25T13:42:27;13.90;89.20
24632;DHT22;59977;48.782;9.190;2024-03-25T13:44:52;13.90;90.20
24632;DHT22;59977;48.782;9.190;2024-03-25T13:47:18;14.00;89.00
24632;DHT22;59977;48.782;9.190;2024-03-25T13:49:44;14.10;87.70
24632;DHT22;59977;48.782;9.190;2024-03-25T13:52:09;14.30;85.30
24632;DHT22;59977;48.782;9.190;2024-03-25T13:54:35;14.30;84.80
24632;DHT22;59977;48.782;9.190;2024-03-25T13:57:01;14.30;84.90
24632;DHT22;59977;48.782;9.190;2024-03-25T13:59:26;14.80;78.80
24632;DHT22;59977;48.782;9.190;2024-03-25T14:01:52;14.80;80.10
24632;DHT22;59977;48.782;9.190;2024-03-25T14:04:19;15.00;78.70
24632;DHT22;59977;48.782;9.190;2024-03-25T14:06:45;15.10;79.60
24632;DHT22;59977;48.782;9.190;2024-03-25T14:09:25;15.40;78.20
24632;DHT22;59977;48.782;9.190;2024-03-25T14:11:51;15.70;76.60
24632;DHT22;59977;48.782;9.190;2024-03-25T14:14:18;15.40;76.10
24632;DHT22;59977;48.782;9.190;2024-03-25T14:16:44;15.10;77.10
24632;DHT22;59977;48.782;9.190;2024-03-25T14:19:10;15.30;76.00
24632;DHT22;59977;48.782;9.190;2024-03-25T14:21:37;15.80;76.70
24632;DHT22;59977;48.782;9.190;2024-03-25T14:24:05;16.20;73.80
24632;DHT22;59977;48.782;9.190;2024-03-25T14:26:31;16.20;75.70
24632;DHT22;59977;48.782;9.190;2024-03-25T14:28:57;16.40;72.20
24632;DHT22;59977;48.782;9.190;2024-03-25T14:31:22;16.70;71.10
24632;DHT22;59977;48.782;9.190;2024-03-25T14:33:48;17.20;70.00
24632;DHT22;59977;48.782;9.190;2024-03-25T14:36:14;17.60;64.70
24632;DHT22;59977;48.782;9.190;2024-03-25T14:38:39;17.80;62.30
24632;DHT22;59977;48.782;9.190;2024-03-25T14:41:05;17.80;63.50
24632;DHT22;59977;48.782;9.190;2024-03-25T14:43:31;18.00;61.10
24632;DHT22;59977;48.782;9.190;2024-03-25T14:45:56;18.10;60.30
24632;DHT22;59977;48.782;9.190;2024-03-25T14:48:22;18.20;58.10
24632;DHT22;59977;48.782;9.190;2024-03-25T14:50:48;18.30;58.00
24632;DHT22;59977;48.782;9.190;2024-03-25T14:53:13;18.80;56.90
24632;DHT22;59977;48.782;9.190;2024-03-25T14:55:41;19.20;55.80
24632;DHT22;59977;48.782;9.190;2024-03-25T14:58:06;19.60;56.60
24632;DHT22;59977;48.782;9.190;2024-03-25T15:00:32;19.70;55.10
24632;DHT22;59977;48.782;9.190;2024-03-25T15:02:57;19.70;54.70
24632;DHT22;59977;48.782;9.190;2024-03-25T15:05:23;20.10;53.50
24632;DHT22;59977;48.782;9.190;2024-03-25T15:07:48;20.30;51.70
24632;DHT22;59977;48.782;9.190;2024-03-25T15:10:14;20.30;51.70
24632;DHT22;59977;48.782;9.190;2024-03-25T15:12:40;20.50;50.30
24632;DHT22;59977;48.782;9.190;2024-03-25T15:15:06;20.50;50.20
24632;DHT22;59977;48.782;9.190;2024-03-25T15:17:33;20.60;50.00
24632;DHT22;59977;48.782;9.190;2024-03-25T15:19:59;20.00;50.60
24632;DHT22;59977;48.782;9.190;2024-03-25T15:22:25;20.00;49.70
24632;DHT22;59977;48.782;9.190;2024-03-25T15:24:50;20.30;49.30
24632;DHT22;59977;48.782;9.190;2024-03-25T15:27:16;20.70;48.40
24632;DHT22;59977;48.782;9.190;2024-03-25T15:29:42;21.20;47.90
24632;DHT22;59977;48.782;9.190;2024-03-25T15:32:07;21.70;46.30
24632;DHT22;59977;48.782;9.190;2024-03-25T15:34:33;21.90;46.20
24632;DHT22;59977;48.782;9.190;2024-03-25T15:36:58;22.00;45.50